CMA CGM Thalassa — 5BNE2 — position and weather

sailwx.info

Track history (hours):
 
Tides and Currents Weather Stations Pressure Air Temp Water Temp Dewpoint Dewpoint Depression Visibility Wind Speed Wind Dir Waves Ship Positions

CMA CGM Thalassa

Last reported at 2016-Apr-20 04:24 UTC. Time now 2016-May-04 11:49 UTC.
Position N 36°57' W 125°15'.
Warning: this ship's position is 14 days out of date.

Length 347 m; draft 10.6 m.

Type: Ship (hazmat cat A). MMSI: 212151000.

Date/timePositionNaut miles runAvg speedWind from/ knotsBaromVisibWave heightAir tempDewpointWater temp
2016-Apr-20 04:24N 36°57' W 125°15'1011.3
2016-Apr-20 03:33N 36°60' W 125°04'1611.2
2016-Apr-20 02:08N 37°05' W 124°45'610.9
2016-Apr-20 01:33N 37°07' W 124°38'1110.9
2016-Apr-20 00:33N 37°11' W 124°25'1111.0
2016-Apr-19 23:34N 37°15' W 124°12'1010.5
2016-Apr-19 22:34N 37°18' W 123°60'1110.6
2016-Apr-19 21:33N 37°22' W 123°47'1111.3
2016-Apr-19 20:33N 37°26' W 123°34'1211.5
2016-Apr-19 19:33N 37°30' W 123°20'1111.4
2016-Apr-19 18:34N 37°33' W 123°06'1211.6
2016-Apr-19 17:34N 37°39' W 122°54'1111.3
2016-Apr-19 16:33N 37°46' W 122°42'1414.1
2016-Apr-19 15:34N 37°50' W 122°25'7 6.6
2016-Apr-19 14:34N 37°48' W 122°17'2 1.5
2016-Apr-19 13:33N 37°48' W 122°19'0 0.0
2016-Apr-19 12:32N 37°48' W 122°19'0 0.0
2016-Apr-19 11:32N 37°48' W 122°19'0 0.0
2016-Apr-19 10:32N 37°48' W 122°19'0 0.0
2016-Apr-19 09:31N 37°48' W 122°19'0 0.0
2016-Apr-19 08:31N 37°48' W 122°19'0 0.0
2016-Apr-19 07:33N 37°48' W 122°19'0 0.0
2016-Apr-19 06:33N 37°48' W 122°19'0 0.0
2016-Apr-19 05:32N 37°48' W 122°19'0 0.0
2016-Apr-19 04:32N 37°48' W 122°19'0 0.0
2016-Apr-19 03:28N 37°48' W 122°19'0 0.0
2016-Apr-19 02:31N 37°48' W 122°19'0 0.0
2016-Apr-19 01:31N 37°48' W 122°19'0 0.0
2016-Apr-19 00:33N 37°48' W 122°19'0 0.0
2016-Apr-18 23:33N 37°48' W 122°19'0 0.0
2016-Apr-18 22:32N 37°48' W 122°19'0 0.0
2016-Apr-18 21:32N 37°48' W 122°19'0 0.0
2016-Apr-18 20:31N 37°48' W 122°19'0 0.0
2016-Apr-18 19:31N 37°48' W 122°19'0 0.0
2016-Apr-18 18:34N 37°48' W 122°19'0 0.0
2016-Apr-18 17:33N 37°48' W 122°19'0 0.0
2016-Apr-18 16:33N 37°48' W 122°19'0 0.0
2016-Apr-18 15:32N 37°48' W 122°19'0 0.0
2016-Apr-18 14:32N 37°48' W 122°19'0 0.0
2016-Apr-18 13:31N 37°48' W 122°19'0 0.2
2016-Apr-18 12:33N 37°48' W 122°20'1111.1
2016-Apr-18 11:33N 37°47' W 122°34'8 8.5
2016-Apr-18 10:33N 37°40' W 122°39'1615.6
2016-Apr-18 09:34N 37°24' W 122°40'1616.3
2016-Apr-18 08:34N 37°08' W 122°38'1716.5
2016-Apr-18 07:34N 36°53' W 122°30'1717.1
2016-Apr-18 06:34N 36°37' W 122°23'1717.0
2016-Apr-18 05:33N 36°21' W 122°15'1716.9
2016-Apr-18 04:33N 36°05' W 122°07'1717.0
2016-Apr-18 03:33N 35°50' W 121°59'1717.3
2016-Apr-18 02:33N 35°34' W 121°50'1818.1
2016-Apr-18 01:33N 35°19' W 121°37'1817.7
2016-Apr-18 00:33N 35°04' W 121°25'12416.9
2016-Apr-17 17:11N 34°03' W 119°13'1218.1
2016-Apr-17 16:33N 33°58' W 119°01'1717.2
2016-Apr-17 15:33N 33°49' W 118°43'1211.6
2016-Apr-17 14:33N 33°43' W 118°31'1111.2
2016-Apr-17 13:33N 33°38' W 118°19'9 8.7
2016-Apr-17 12:33N 33°44' W 118°11'1 0.6
2016-Apr-17 11:14N 33°44' W 118°12'0 0.0
2016-Apr-17 10:22N 33°44' W 118°12'0 0.0
2016-Apr-17 09:10N 33°44' W 118°12'0 0.0
2016-Apr-17 08:33N 33°44' W 118°12'0 0.0
2016-Apr-17 07:33N 33°44' W 118°12'0 0.0
2016-Apr-17 06:30N 33°44' W 118°12'0 0.0
2016-Apr-17 04:20N 33°44' W 118°12'0 0.0
2016-Apr-17 03:31N 33°44' W 118°12'0 0.0
2016-Apr-17 02:28N 33°44' W 118°12'0 0.0
2016-Apr-17 01:33N 33°44' W 118°12'0 0.0
2016-Apr-17 00:33N 33°44' W 118°12'0 0.0
2016-Apr-16 23:33N 33°44' W 118°12'0 0.0
2016-Apr-16 22:26N 33°44' W 118°12'0 0.0
2016-Apr-16 21:23N 33°44' W 118°12'0 0.0
2016-Apr-16 20:31N 33°44' W 118°12'0 0.0
2016-Apr-16 19:21N 33°44' W 118°12'0 0.0
2016-Apr-16 18:08N 33°44' W 118°12'0 0.0
2016-Apr-16 13:24N 33°44' W 118°12'0 0.0
2016-Apr-16 11:26N 33°44' W 118°12'0 0.0
2016-Apr-16 08:27N 33°44' W 118°12'0 0.0
2016-Apr-16 07:33N 33°44' W 118°12'0 0.0
2016-Apr-16 06:33N 33°44' W 118°12'0 0.0
2016-Apr-16 05:29N 33°44' W 118°12'0 0.0
2016-Apr-16 04:31N 33°44' W 118°12'0 0.0
2016-Apr-16 03:31N 33°44' W 118°12'0 0.0
2016-Apr-16 02:31N 33°44' W 118°12'0 0.0
2016-Apr-16 01:33N 33°44' W 118°12'0 0.0
2016-Apr-16 00:33N 33°44' W 118°12'0 0.0
2016-Apr-15 23:33N 33°44' W 118°12'0 0.0
2016-Apr-15 22:29N 33°44' W 118°12'0 0.0
2016-Apr-15 21:14N 33°44' W 118°12'0 0.0
2016-Apr-15 20:31N 33°44' W 118°12'0 0.0
2016-Apr-15 19:33N 33°44' W 118°12'0 0.0
2016-Apr-15 16:04N 33°44' W 118°12'0 0.0
2016-Apr-15 13:26N 33°44' W 118°12'0 0.0
2016-Apr-15 12:32N 33°44' W 118°12'0 0.0
2016-Apr-15 11:29N 33°44' W 118°12'0 0.0
2016-Apr-15 10:16N 33°44' W 118°12'0 0.0
2016-Apr-15 09:16N 33°44' W 118°12'0 0.0
2016-Apr-15 06:32N 33°44' W 118°12'0 0.0
2016-Apr-15 04:32N 33°44' W 118°12'0 0.0
2016-Apr-15 02:19N 33°44' W 118°12'0 0.0
2016-Apr-15 00:30N 33°44' W 118°12'0 0.0
2016-Apr-14 23:23N 33°44' W 118°12'0 0.0
2016-Apr-14 22:08N 33°44' W 118°12'0 0.0
2016-Apr-14 20:19N 33°44' W 118°12'0 0.0
2016-Apr-14 16:16N 33°44' W 118°12'0 0.0
2016-Apr-14 15:12N 33°44' W 118°12'0 0.0
2016-Apr-14 14:33N 33°44' W 118°12'0 0.0
2016-Apr-14 13:29N 33°44' W 118°12'0 0.0
2016-Apr-14 12:32N 33°44' W 118°12'0 0.0
2016-Apr-14 11:32N 33°44' W 118°12'0 0.0
2016-Apr-14 10:11N 33°44' W 118°12'0 0.0
2016-Apr-14 09:30N 33°44' W 118°12'0 0.0
2016-Apr-14 08:33N 33°44' W 118°12'0 0.0
2016-Apr-14 07:27N 33°44' W 118°12'0 0.0
2016-Apr-14 06:33N 33°44' W 118°12'0 0.0
2016-Apr-14 05:32N 33°44' W 118°12'0 0.0
2016-Apr-14 04:33N 33°44' W 118°12'0 0.0
2016-Apr-14 03:33N 33°44' W 118°12'0 0.0
2016-Apr-14 02:33N 33°44' W 118°12'0 0.0
2016-Apr-14 01:33N 33°44' W 118°12'0 0.0
2016-Apr-14 00:33N 33°44' W 118°12'0 0.0
2016-Apr-13 23:33N 33°44' W 118°12'1 0.5
2016-Apr-13 22:33N 33°44' W 118°11'8 7.1
2016-Apr-13 21:25N 33°36' W 118°14'1011.5
2016-Apr-13 20:32N 33°36' W 118°26'1611.7
2016-Apr-13 19:11N 33°37' W 118°45'1917.5
2016-Apr-13 18:04N 33°37' W 119°08'  
Track history (hours):
 
Tides and Currents Weather Stations Pressure Air Temp Water Temp Dewpoint Dewpoint Depression Visibility Wind Speed Wind Dir Waves Ship Positions

CMA CGM Thalassa

Last reported at 2016-Apr-20 04:24 UTC. Time now 2016-May-04 11:49 UTC.
Position N 36°57' W 125°15'.
Warning: this ship's position is 14 days out of date.

Length 347 m; draft 10.6 m.

Type: Ship (hazmat cat A). MMSI: 212151000.

Date/timePositionNaut miles runAvg speedWind from/ knotsBaromVisibWave heightAir tempDewpointWater temp
2016-Apr-20 04:24N 36°57' W 125°15'1011.3
2016-Apr-20 03:33N 36°60' W 125°04'1611.2
2016-Apr-20 02:08N 37°05' W 124°45'610.9
2016-Apr-20 01:33N 37°07' W 124°38'1110.9
2016-Apr-20 00:33N 37°11' W 124°25'1111.0
2016-Apr-19 23:34N 37°15' W 124°12'1010.5
2016-Apr-19 22:34N 37°18' W 123°60'1110.6
2016-Apr-19 21:33N 37°22' W 123°47'1111.3
2016-Apr-19 20:33N 37°26' W 123°34'1211.5
2016-Apr-19 19:33N 37°30' W 123°20'1111.4
2016-Apr-19 18:34N 37°33' W 123°06'1211.6
2016-Apr-19 17:34N 37°39' W 122°54'1111.3
2016-Apr-19 16:33N 37°46' W 122°42'1414.1
2016-Apr-19 15:34N 37°50' W 122°25'7 6.6
2016-Apr-19 14:34N 37°48' W 122°17'2 1.5
2016-Apr-19 13:33N 37°48' W 122°19'0 0.0
2016-Apr-19 12:32N 37°48' W 122°19'0 0.0
2016-Apr-19 11:32N 37°48' W 122°19'0 0.0
2016-Apr-19 10:32N 37°48' W 122°19'0 0.0
2016-Apr-19 09:31N 37°48' W 122°19'0 0.0
2016-Apr-19 08:31N 37°48' W 122°19'0 0.0
2016-Apr-19 07:33N 37°48' W 122°19'0 0.0
2016-Apr-19 06:33N 37°48' W 122°19'0 0.0
2016-Apr-19 05:32N 37°48' W 122°19'0 0.0
2016-Apr-19 04:32N 37°48' W 122°19'0 0.0
2016-Apr-19 03:28N 37°48' W 122°19'0 0.0
2016-Apr-19 02:31N 37°48' W 122°19'0 0.0
2016-Apr-19 01:31N 37°48' W 122°19'0 0.0
2016-Apr-19 00:33N 37°48' W 122°19'0 0.0
2016-Apr-18 23:33N 37°48' W 122°19'0 0.0
2016-Apr-18 22:32N 37°48' W 122°19'0 0.0
2016-Apr-18 21:32N 37°48' W 122°19'0 0.0
2016-Apr-18 20:31N 37°48' W 122°19'0 0.0
2016-Apr-18 19:31N 37°48' W 122°19'0 0.0
2016-Apr-18 18:34N 37°48' W 122°19'0 0.0
2016-Apr-18 17:33N 37°48' W 122°19'0 0.0
2016-Apr-18 16:33N 37°48' W 122°19'0 0.0
2016-Apr-18 15:32N 37°48' W 122°19'0 0.0
2016-Apr-18 14:32N 37°48' W 122°19'0 0.0
2016-Apr-18 13:31N 37°48' W 122°19'0 0.2
2016-Apr-18 12:33N 37°48' W 122°20'1111.1
2016-Apr-18 11:33N 37°47' W 122°34'8 8.5
2016-Apr-18 10:33N 37°40' W 122°39'1615.6
2016-Apr-18 09:34N 37°24' W 122°40'1616.3
2016-Apr-18 08:34N 37°08' W 122°38'1716.5
2016-Apr-18 07:34N 36°53' W 122°30'1717.1
2016-Apr-18 06:34N 36°37' W 122°23'1717.0
2016-Apr-18 05:33N 36°21' W 122°15'1716.9
2016-Apr-18 04:33N 36°05' W 122°07'1717.0
2016-Apr-18 03:33N 35°50' W 121°59'1717.3
2016-Apr-18 02:33N 35°34' W 121°50'1818.1
2016-Apr-18 01:33N 35°19' W 121°37'1817.7
2016-Apr-18 00:33N 35°04' W 121°25'12416.9
2016-Apr-17 17:11N 34°03' W 119°13'1218.1
2016-Apr-17 16:33N 33°58' W 119°01'1717.2
2016-Apr-17 15:33N 33°49' W 118°43'1211.6
2016-Apr-17 14:33N 33°43' W 118°31'1111.2
2016-Apr-17 13:33N 33°38' W 118°19'9 8.7
2016-Apr-17 12:33N 33°44' W 118°11'1 0.6
2016-Apr-17 11:14N 33°44' W 118°12'0 0.0
2016-Apr-17 10:22N 33°44' W 118°12'0 0.0
2016-Apr-17 09:10N 33°44' W 118°12'0 0.0
2016-Apr-17 08:33N 33°44' W 118°12'0 0.0
2016-Apr-17 07:33N 33°44' W 118°12'0 0.0
2016-Apr-17 06:30N 33°44' W 118°12'0 0.0
2016-Apr-17 04:20N 33°44' W 118°12'0 0.0
2016-Apr-17 03:31N 33°44' W 118°12'0 0.0
2016-Apr-17 02:28N 33°44' W 118°12'0 0.0
2016-Apr-17 01:33N 33°44' W 118°12'0 0.0
2016-Apr-17 00:33N 33°44' W 118°12'0 0.0
2016-Apr-16 23:33N 33°44' W 118°12'0 0.0
2016-Apr-16 22:26N 33°44' W 118°12'0 0.0
2016-Apr-16 21:23N 33°44' W 118°12'0 0.0
2016-Apr-16 20:31N 33°44' W 118°12'0 0.0
2016-Apr-16 19:21N 33°44' W 118°12'0 0.0
2016-Apr-16 18:08N 33°44' W 118°12'0 0.0
2016-Apr-16 13:24N 33°44' W 118°12'0 0.0
2016-Apr-16 11:26N 33°44' W 118°12'0 0.0
2016-Apr-16 08:27N 33°44' W 118°12'0 0.0
2016-Apr-16 07:33N 33°44' W 118°12'0 0.0
2016-Apr-16 06:33N 33°44' W 118°12'0 0.0
2016-Apr-16 05:29N 33°44' W 118°12'0 0.0
2016-Apr-16 04:31N 33°44' W 118°12'0 0.0
2016-Apr-16 03:31N 33°44' W 118°12'0 0.0
2016-Apr-16 02:31N 33°44' W 118°12'0 0.0
2016-Apr-16 01:33N 33°44' W 118°12'0 0.0
2016-Apr-16 00:33N 33°44' W 118°12'0 0.0
2016-Apr-15 23:33N 33°44' W 118°12'0 0.0
2016-Apr-15 22:29N 33°44' W 118°12'0 0.0
2016-Apr-15 21:14N 33°44' W 118°12'0 0.0
2016-Apr-15 20:31N 33°44' W 118°12'0 0.0
2016-Apr-15 19:33N 33°44' W 118°12'0 0.0
2016-Apr-15 16:04N 33°44' W 118°12'0 0.0
2016-Apr-15 13:26N 33°44' W 118°12'0 0.0
2016-Apr-15 12:32N 33°44' W 118°12'0 0.0
2016-Apr-15 11:29N 33°44' W 118°12'0 0.0
2016-Apr-15 10:16N 33°44' W 118°12'0 0.0
2016-Apr-15 09:16N 33°44' W 118°12'0 0.0
2016-Apr-15 06:32N 33°44' W 118°12'0 0.0
2016-Apr-15 04:32N 33°44' W 118°12'0 0.0
2016-Apr-15 02:19N 33°44' W 118°12'0 0.0
2016-Apr-15 00:30N 33°44' W 118°12'0 0.0
2016-Apr-14 23:23N 33°44' W 118°12'0 0.0
2016-Apr-14 22:08N 33°44' W 118°12'0 0.0
2016-Apr-14 20:19N 33°44' W 118°12'0 0.0
2016-Apr-14 16:16N 33°44' W 118°12'0 0.0
2016-Apr-14 15:12N 33°44' W 118°12'0 0.0
2016-Apr-14 14:33N 33°44' W 118°12'0 0.0
2016-Apr-14 13:29N 33°44' W 118°12'0 0.0
2016-Apr-14 12:32N 33°44' W 118°12'0 0.0
2016-Apr-14 11:32N 33°44' W 118°12'0 0.0
2016-Apr-14 10:11N 33°44' W 118°12'0 0.0
2016-Apr-14 09:30N 33°44' W 118°12'0 0.0
2016-Apr-14 08:33N 33°44' W 118°12'0 0.0
2016-Apr-14 07:27N 33°44' W 118°12'0 0.0
2016-Apr-14 06:33N 33°44' W 118°12'0 0.0
2016-Apr-14 05:32N 33°44' W 118°12'0 0.0
2016-Apr-14 04:33N 33°44' W 118°12'0 0.0
2016-Apr-14 03:33N 33°44' W 118°12'0 0.0
2016-Apr-14 02:33N 33°44' W 118°12'0 0.0
2016-Apr-14 01:33N 33°44' W 118°12'0 0.0
2016-Apr-14 00:33N 33°44' W 118°12'0 0.0
2016-Apr-13 23:33N 33°44' W 118°12'1 0.5
2016-Apr-13 22:33N 33°44' W 118°11'8 7.1
2016-Apr-13 21:25N 33°36' W 118°14'1011.5
2016-Apr-13 20:32N 33°36' W 118°26'1611.7
2016-Apr-13 19:11N 33°37' W 118°45'1917.5
2016-Apr-13 18:04N 33°37' W 119°08'  

Dump ship's entire track history